首页
METAR-TAF:

METAR-TAF

机场 :

Florence, 南卡罗来纳州, 美国

纬度: 34-11-16N, 经度: 079-43-51W, 海拔: 45米

当前天气观测

该预报发布于13分钟前的20:53 UTC
风速8节,风向西南
温度 33°C
湿度 32%
气压 1017 hPa
能見度: 16.1公里
少量云层高于7500英尺

METAR: KFLO 182053Z 23008KT 10SM FEW075 33/14 A3004 RMK AO2 SLP170 T03280139 58018

时间: 17:06 (21:06 UTC)

预报

该预报发布于3小时和42分钟前的17:24 UTC
预报有效从18日的 18点(UTC)到 19日的 18点(UTC)
风速5节,风向
能見度: 10公里
天空无云
从 19日的 0100点(UTC)
风速6节,风向
能見度: 10公里
少量云层高于20000英尺
从 19日的 0300点(UTC)
风速8节,风向南转西南
能見度: 10公里
少量云层高于20000英尺
从 19日的 0800点(UTC)
风速6节,风向南转西南
能見度: 10公里
散云层高于20000英尺
从 19日的 1400点(UTC)
风速8节,风向西南
能見度: 10公里
少量云层高于25000英尺

TAF: KFLO 181724Z 1818/1918 19005KT P6SM SKC FM190100 18006KT P6SM FEW200 FM190300 20008KT P6SM FEW200 FM190800 21006KT P6SM SCT200 FM191400 23008KT P6SM FEW250

超过4000个机场的气象观测和天气预报(METAR&TAF报告)。

可查询的气象台以黄色和红色小点在地图上表示。

将鼠标移到小点上方,可查看气象台名称。

然后点击查看天气观测和预报。

如需切换地图:点击带黑十字的绿色按钮放大地图;点击带横线的绿色按钮缩小地图;或者点击绿色箭头查看邻近地区的地图。


METAR-TAF: